createdAt,value
2022-12-03T00:00:35.741Z,2.77
2022-12-03T00:03:02.550Z,2.79
2022-12-03T00:05:29.317Z,2.78
2022-12-03T00:07:56.004Z,2.79
2022-12-03T00:10:22.938Z,2.81
2022-12-03T00:12:49.483Z,2.80
2022-12-03T00:15:16.111Z,2.79
2022-12-03T00:17:42.840Z,2.81
2022-12-03T00:20:11.638Z,2.81
2022-12-03T00:22:38.213Z,2.79
2022-12-03T00:25:05.261Z,2.80
2022-12-03T00:27:32.986Z,2.79
2022-12-03T00:29:59.520Z,2.79
2022-12-03T00:32:26.056Z,2.81
2022-12-03T00:34:53.147Z,2.80
2022-12-03T00:37:20.010Z,2.76
2022-12-03T00:39:47.564Z,2.77
2022-12-03T00:42:16.617Z,2.76
2022-12-03T00:44:43.337Z,2.76
2022-12-03T00:47:10.079Z,2.80
2022-12-03T00:49:36.839Z,2.81
2022-12-03T00:52:03.610Z,2.80
2022-12-03T00:54:32.019Z,2.81
2022-12-03T00:56:59.309Z,2.80
2022-12-03T00:59:25.971Z,2.80
2022-12-03T01:01:52.750Z,2.82
2022-12-03T01:04:19.603Z,2.82
2022-12-03T01:06:46.284Z,2.79
2022-12-03T01:09:12.896Z,2.79
2022-12-03T01:11:39.650Z,2.77
2022-12-03T01:14:10.278Z,2.77
2022-12-03T01:16:37.196Z,2.77
2022-12-03T01:19:05.640Z,2.76
2022-12-03T01:21:33.209Z,2.78
2022-12-03T01:23:59.951Z,2.80
2022-12-03T01:26:26.716Z,2.78
2022-12-03T01:28:53.682Z,2.75
2022-12-03T01:31:39.311Z,2.76
2022-12-03T01:34:06.359Z,2.76
2022-12-03T01:36:34.523Z,2.76
2022-12-03T01:39:03.819Z,2.77
2022-12-03T01:41:31.840Z,2.76
2022-12-03T01:44:00.030Z,2.76
2022-12-03T01:46:40.999Z,2.73
2022-12-03T01:49:17.413Z,2.74
2022-12-03T01:51:44.705Z,2.73
2022-12-03T01:54:21.117Z,2.72
2022-12-03T01:56:48.709Z,2.66
2022-12-03T01:59:18.796Z,2.68
2022-12-03T02:01:46.127Z,2.68
2022-12-03T02:04:14.817Z,2.65
2022-12-03T02:06:43.277Z,2.66
2022-12-03T02:09:12.324Z,2.68
2022-12-03T02:11:50.465Z,2.68
2022-12-03T02:14:20.944Z,2.69
2022-12-03T02:16:48.861Z,2.71
2022-12-03T02:19:26.758Z,2.69
2022-12-03T02:21:56.096Z,2.68
2022-12-03T02:24:36.581Z,2.69
2022-12-03T02:27:03.614Z,2.68
2022-12-03T02:29:30.314Z,2.68
2022-12-03T02:31:57.183Z,2.69
2022-12-03T02:34:43.612Z,2.70
2022-12-03T02:37:29.644Z,2.67
2022-12-03T02:39:59.838Z,2.66
2022-12-03T02:42:36.195Z,2.67
2022-12-03T02:45:06.015Z,2.66
2022-12-03T02:47:35.482Z,2.65
2022-12-03T02:50:03.289Z,2.65
2022-12-03T02:52:30.385Z,2.63
2022-12-03T02:54:57.352Z,2.64
2022-12-03T02:57:24.328Z,2.63
2022-12-03T02:59:51.181Z,2.62
2022-12-03T03:02:18.142Z,2.64
2022-12-03T03:04:44.986Z,2.61
2022-12-03T03:07:14.034Z,2.61
2022-12-03T03:09:40.846Z,2.61
2022-12-03T03:12:07.598Z,2.58
2022-12-03T03:14:34.603Z,2.56
2022-12-03T03:17:01.432Z,2.55
2022-12-03T03:19:29.369Z,2.55
2022-12-03T03:21:56.176Z,2.55
2022-12-03T03:24:23.378Z,2.52
2022-12-03T03:26:50.418Z,2.53
2022-12-03T03:29:18.001Z,2.53
2022-12-03T03:31:46.341Z,2.54
2022-12-03T03:34:14.263Z,2.49
2022-12-03T03:36:41.468Z,2.50
2022-12-03T03:39:08.420Z,2.51
2022-12-03T03:41:36.538Z,2.51
2022-12-03T03:44:06.198Z,2.51
2022-12-03T03:46:33.692Z,2.46
2022-12-03T03:49:00.849Z,2.46
2022-12-03T03:51:27.844Z,2.45
2022-12-03T03:53:54.816Z,2.45
2022-12-03T03:56:21.906Z,2.44
2022-12-03T03:58:48.795Z,2.45
2022-12-03T04:01:16.746Z,2.45
2022-12-03T04:03:43.486Z,2.44
2022-12-03T04:06:10.320Z,2.44
2022-12-03T04:08:36.956Z,2.45
2022-12-03T04:11:22.485Z,2.45
2022-12-03T04:13:49.089Z,2.46
2022-12-03T04:16:16.805Z,2.44
2022-12-03T04:18:43.509Z,2.42
2022-12-03T04:28:35.329Z,2.35
2022-12-03T04:31:22.135Z,2.31
2022-12-03T04:34:07.476Z,2.30
2022-12-03T04:36:34.043Z,2.29
2022-12-03T04:39:00.741Z,2.31
2022-12-03T04:41:27.536Z,2.32
2022-12-03T04:44:12.586Z,2.35
2022-12-03T04:46:39.233Z,2.33
2022-12-03T04:49:05.884Z,2.34
2022-12-03T04:51:32.638Z,2.34
2022-12-03T04:53:59.302Z,2.34
2022-12-03T04:56:26.034Z,2.35
2022-12-03T04:58:52.617Z,2.35
2022-12-03T05:01:19.395Z,2.34
2022-12-03T05:03:46.010Z,2.30
2022-12-03T05:06:12.844Z,2.29
2022-12-03T05:08:39.471Z,2.24
2022-12-03T05:11:06.332Z,2.23
2022-12-03T05:13:32.943Z,2.23
2022-12-03T05:15:59.605Z,2.23
2022-12-03T05:18:26.236Z,2.22
2022-12-03T05:20:53.676Z,2.18
2022-12-03T05:23:21.004Z,2.22
2022-12-03T05:25:47.792Z,2.21
2022-12-03T05:28:14.792Z,2.19
2022-12-03T05:30:41.570Z,2.20
2022-12-03T05:33:08.276Z,2.20
2022-12-03T05:35:34.964Z,2.23
2022-12-03T05:38:01.661Z,2.22
2022-12-03T05:40:28.723Z,2.20
2022-12-03T05:42:56.786Z,2.21
2022-12-03T05:45:30.817Z,2.21
2022-12-03T05:47:58.776Z,2.16
2022-12-03T05:50:28.413Z,2.15
2022-12-03T05:52:55.460Z,2.14
2022-12-03T05:55:24.240Z,2.11
2022-12-03T05:57:51.194Z,2.12
2022-12-03T06:00:24.235Z,2.11
2022-12-03T06:02:51.389Z,2.12
2022-12-03T06:05:21.659Z,2.11
2022-12-03T06:07:50.338Z,2.07
2022-12-03T06:10:20.835Z,2.03
2022-12-03T06:12:47.679Z,2.00
2022-12-03T06:15:15.195Z,1.99
2022-12-03T06:17:41.928Z,1.98
2022-12-03T06:20:10.751Z,1.96
2022-12-03T06:22:37.431Z,1.96
2022-12-03T06:25:06.934Z,1.98
2022-12-03T06:27:36.910Z,1.96
2022-12-03T06:30:06.273Z,1.91
2022-12-03T06:32:32.950Z,1.87
2022-12-03T06:34:59.540Z,1.85
2022-12-03T06:37:26.256Z,1.78
2022-12-03T06:39:52.888Z,1.79
2022-12-03T06:42:19.613Z,1.73
2022-12-03T06:44:46.208Z,1.70
2022-12-03T06:47:13.114Z,1.72
2022-12-03T06:49:39.852Z,1.74
2022-12-03T06:52:06.482Z,1.75
2022-12-03T06:54:33.432Z,1.74
2022-12-03T06:57:00.356Z,1.75
2022-12-03T06:59:27.009Z,1.74
2022-12-03T07:01:53.734Z,1.69
2022-12-03T07:04:20.573Z,1.64
2022-12-03T07:06:47.324Z,1.65
2022-12-03T07:09:16.451Z,1.68
2022-12-03T07:11:43.381Z,1.70
2022-12-03T07:14:11.531Z,1.74
2022-12-03T07:16:39.381Z,1.72
2022-12-03T07:19:06.899Z,1.70
2022-12-03T07:21:33.770Z,1.70
2022-12-03T07:24:00.608Z,1.71
2022-12-03T07:26:27.656Z,1.68
2022-12-03T07:28:54.187Z,1.64
2022-12-03T07:31:20.840Z,1.66
2022-12-03T07:33:47.674Z,1.64
2022-12-03T07:36:14.330Z,1.59
2022-12-03T07:38:40.945Z,1.57
2022-12-03T07:41:07.615Z,1.58
2022-12-03T07:43:35.362Z,1.56
2022-12-03T07:46:01.999Z,1.55
2022-12-03T07:48:30.698Z,1.56
2022-12-03T07:50:57.429Z,1.57
2022-12-03T07:53:24.252Z,1.57
2022-12-03T07:55:50.902Z,1.60
2022-12-03T07:58:17.498Z,1.65
2022-12-03T08:00:44.208Z,1.67
2022-12-03T08:03:10.895Z,1.65
2022-12-03T08:05:37.533Z,1.66
2022-12-03T08:08:04.349Z,1.62
2022-12-03T08:10:31.060Z,1.58
2022-12-03T08:12:59.617Z,1.57
2022-12-03T08:15:33.810Z,1.58
2022-12-03T08:18:13.375Z,1.60
2022-12-03T08:20:41.890Z,1.55
2022-12-03T08:23:15.754Z,1.57
2022-12-03T08:25:43.969Z,1.55
2022-12-03T08:28:19.014Z,1.57
2022-12-03T08:30:58.008Z,1.56
2022-12-03T08:33:33.716Z,1.57
2022-12-03T08:36:05.476Z,1.58
2022-12-03T08:38:32.110Z,1.60
2022-12-03T08:40:59.265Z,1.63
2022-12-03T08:43:28.460Z,1.62
2022-12-03T08:45:56.763Z,1.64
2022-12-03T08:48:34.752Z,1.63
2022-12-03T08:51:19.102Z,1.61
2022-12-03T08:53:50.022Z,1.54
2022-12-03T08:56:22.321Z,1.58
2022-12-03T08:58:55.845Z,1.60
2022-12-03T09:01:28.576Z,1.64
2022-12-03T09:03:56.291Z,1.60
2022-12-03T09:06:22.915Z,1.61
2022-12-03T09:08:49.513Z,1.62
2022-12-03T09:11:16.272Z,1.56
2022-12-03T09:13:43.533Z,1.55
2022-12-03T09:16:10.248Z,1.53
2022-12-03T09:18:36.983Z,1.55
2022-12-03T09:21:03.625Z,1.57
2022-12-03T09:23:30.244Z,1.59
2022-12-03T09:25:56.913Z,1.60
2022-12-03T09:28:23.677Z,1.61
2022-12-03T09:30:50.399Z,1.60
2022-12-03T09:33:17.066Z,1.62
2022-12-03T09:35:43.724Z,1.63
2022-12-03T09:38:10.987Z,1.68
2022-12-03T09:40:38.233Z,1.69
2022-12-03T09:43:05.119Z,1.71
2022-12-03T09:45:32.049Z,1.73
2022-12-03T09:48:01.953Z,1.74
2022-12-03T09:50:28.910Z,1.74
2022-12-03T09:52:59.295Z,1.74
2022-12-03T09:55:28.639Z,1.69
2022-12-03T09:57:57.121Z,1.64
2022-12-03T10:00:27.011Z,1.57
2022-12-03T10:02:58.422Z,1.55
2022-12-03T10:05:25.821Z,1.47
2022-12-03T10:07:53.387Z,1.45
2022-12-03T10:10:23.073Z,1.42
2022-12-03T10:12:51.771Z,1.45
2022-12-03T10:15:22.506Z,1.46
2022-12-03T10:17:52.235Z,1.40
2022-12-03T10:20:22.455Z,1.38
2022-12-03T10:22:49.445Z,1.42
2022-12-03T10:25:19.287Z,1.41
2022-12-03T10:27:59.245Z,1.40
2022-12-03T10:30:28.584Z,1.44
2022-12-03T10:32:58.781Z,1.48
2022-12-03T10:35:37.521Z,1.53
2022-12-03T10:38:19.464Z,1.58
2022-12-03T10:40:46.585Z,1.65
2022-12-03T10:43:19.216Z,1.67
2022-12-03T10:45:52.184Z,1.69
2022-12-03T10:48:26.341Z,1.70
2022-12-03T10:50:52.948Z,1.75
2022-12-03T10:53:27.429Z,1.77
2022-12-03T10:55:59.444Z,1.76
2022-12-03T10:58:29.379Z,1.79
2022-12-03T11:00:58.017Z,1.82
2022-12-03T11:03:27.398Z,1.86
2022-12-03T11:05:55.888Z,1.92
2022-12-03T11:08:24.330Z,1.94
2022-12-03T11:11:20.246Z,1.90
2022-12-03T11:13:46.886Z,1.87
2022-12-03T11:16:14.387Z,1.81
2022-12-03T11:18:41.392Z,1.81
2022-12-03T11:21:11.505Z,1.77
2022-12-03T11:23:46.086Z,1.77
2022-12-03T11:26:38.769Z,1.79
2022-12-03T11:29:14.455Z,1.76
2022-12-03T11:31:45.213Z,1.72
2022-12-03T11:34:17.940Z,1.71
2022-12-03T11:37:09.541Z,1.69
2022-12-03T11:39:47.913Z,1.66
2022-12-03T11:42:38.890Z,1.64
2022-12-03T11:45:05.439Z,1.66
2022-12-03T11:48:00.343Z,1.67
2022-12-03T11:50:42.320Z,1.67
2022-12-03T11:53:46.332Z,1.66
2022-12-03T11:56:27.911Z,1.63
2022-12-03T11:59:03.557Z,1.62
2022-12-03T12:01:39.484Z,1.62
2022-12-03T12:04:08.454Z,1.62
2022-12-03T12:06:43.926Z,1.59
2022-12-03T12:09:10.778Z,1.61
2022-12-03T12:11:41.505Z,1.62
2022-12-03T12:14:11.375Z,1.62
2022-12-03T12:16:51.317Z,1.62
2022-12-03T12:19:42.168Z,1.59
2022-12-03T12:22:30.285Z,1.54
2022-12-03T12:25:02.505Z,1.57
2022-12-03T12:27:45.582Z,1.58
2022-12-03T12:30:17.741Z,1.61
2022-12-03T12:32:47.639Z,1.61
2022-12-03T12:35:26.063Z,1.64
2022-12-03T12:37:59.733Z,1.67
2022-12-03T12:40:31.942Z,1.71
2022-12-03T12:43:05.334Z,1.73
2022-12-03T12:45:39.728Z,1.78
2022-12-03T12:48:16.956Z,1.76
2022-12-03T12:50:48.605Z,1.73
2022-12-03T12:53:35.371Z,1.70
2022-12-03T12:56:11.504Z,1.65
2022-12-03T12:58:38.194Z,1.58
2022-12-03T13:01:11.446Z,1.56
2022-12-03T13:03:39.723Z,1.52
2022-12-03T13:06:06.601Z,1.48
2022-12-03T13:08:42.824Z,1.47
2022-12-03T13:11:24.719Z,1.48
2022-12-03T13:13:52.055Z,1.41
2022-12-03T13:16:26.626Z,1.34
2022-12-03T13:19:01.314Z,1.30
2022-12-03T13:21:38.729Z,1.34
2022-12-03T13:24:29.945Z,1.34
2022-12-03T13:26:57.660Z,1.36
2022-12-03T13:29:27.135Z,1.39
2022-12-03T13:31:59.918Z,1.29
2022-12-03T13:34:35.887Z,1.28
2022-12-03T13:37:06.295Z,1.31
2022-12-03T13:39:36.385Z,1.35
2022-12-03T13:42:45.709Z,1.39
2022-12-03T13:45:15.138Z,1.36
2022-12-03T13:47:44.654Z,1.35
2022-12-03T13:50:36.040Z,1.35
2022-12-03T13:53:12.777Z,1.34
2022-12-03T13:55:43.100Z,1.31
2022-12-03T13:58:09.754Z,1.27
2022-12-03T14:00:36.362Z,1.25
2022-12-03T14:03:03.271Z,1.25
2022-12-03T14:05:30.001Z,1.29
2022-12-03T14:08:02.131Z,1.29
2022-12-03T14:10:29.727Z,1.28
2022-12-03T14:12:57.151Z,1.28
2022-12-03T14:15:24.970Z,1.30
2022-12-03T14:17:52.051Z,1.25
2022-12-03T14:20:19.477Z,1.21
2022-12-03T14:22:46.054Z,1.22
2022-12-03T14:25:12.742Z,1.26
2022-12-03T14:27:39.458Z,1.29
2022-12-03T14:30:06.728Z,1.23
2022-12-03T14:32:33.321Z,1.22
2022-12-03T14:35:02.780Z,1.20
2022-12-03T14:37:31.951Z,1.15
2022-12-03T14:39:58.757Z,1.15
2022-12-03T14:42:25.406Z,1.12
2022-12-03T14:44:52.206Z,1.10
2022-12-03T14:47:22.506Z,1.08
2022-12-03T14:49:50.472Z,1.05
2022-12-03T14:52:18.228Z,0.99
2022-12-03T14:54:45.261Z,1.00
2022-12-03T14:57:13.731Z,0.98
2022-12-03T14:59:41.733Z,0.95
2022-12-03T15:02:09.655Z,0.92
2022-12-03T15:04:36.723Z,0.90
2022-12-03T15:07:03.778Z,0.87
2022-12-03T15:09:30.411Z,0.83
2022-12-03T15:11:57.047Z,0.84
2022-12-03T15:14:23.748Z,0.85
2022-12-03T15:16:51.549Z,0.87
2022-12-03T15:19:18.243Z,0.88
2022-12-03T15:21:44.824Z,0.87
2022-12-03T15:24:11.560Z,0.88
2022-12-03T15:26:38.148Z,0.83
2022-12-03T15:29:05.852Z,0.83
2022-12-03T15:31:32.601Z,0.86
2022-12-03T15:33:59.354Z,0.89
2022-12-03T15:36:26.016Z,0.87
2022-12-03T15:38:52.697Z,0.84
2022-12-03T15:41:24.335Z,0.82
2022-12-03T15:43:55.222Z,0.83
2022-12-03T15:46:22.518Z,0.88
2022-12-03T15:48:49.330Z,0.90
2022-12-03T15:51:16.630Z,0.91
2022-12-03T15:53:43.298Z,0.93
2022-12-03T15:56:12.003Z,0.92
2022-12-03T15:58:39.508Z,0.90
2022-12-03T16:01:06.554Z,0.89
2022-12-03T16:03:34.690Z,0.91
2022-12-03T16:06:02.555Z,0.92
2022-12-03T16:08:29.126Z,0.96
2022-12-03T16:10:55.771Z,0.96
2022-12-03T16:13:22.361Z,0.92
2022-12-03T16:15:49.116Z,0.90
2022-12-03T16:18:17.776Z,0.88
2022-12-03T16:20:44.529Z,0.91
2022-12-03T16:23:11.424Z,0.94
2022-12-03T16:25:38.171Z,0.96
2022-12-03T16:28:04.787Z,0.87
2022-12-03T16:30:32.325Z,0.90
2022-12-03T16:32:59.008Z,0.92
2022-12-03T16:35:25.743Z,0.93
2022-12-03T16:37:52.423Z,0.95
2022-12-03T16:40:21.076Z,0.96
2022-12-03T16:42:47.661Z,0.90
2022-12-03T16:45:34.055Z,0.86
2022-12-03T16:48:01.918Z,0.89
2022-12-03T16:50:30.305Z,0.88
2022-12-03T16:52:57.882Z,0.88
2022-12-03T16:55:25.047Z,0.91
2022-12-03T16:57:52.634Z,0.91
2022-12-03T17:00:21.828Z,0.89
2022-12-03T17:02:48.804Z,0.88
2022-12-03T17:05:16.512Z,0.88
2022-12-03T17:07:43.281Z,0.89
2022-12-03T17:10:10.467Z,0.91
2022-12-03T17:13:07.137Z,0.90
2022-12-03T17:15:25.676Z,0.93
2022-12-03T17:17:52.242Z,0.93
2022-12-03T17:20:19.166Z,0.94
2022-12-03T17:22:46.415Z,0.93
2022-12-03T17:25:13.174Z,0.92
2022-12-03T17:27:45.150Z,0.86
2022-12-03T17:30:13.085Z,0.85
2022-12-03T17:32:39.830Z,0.86
2022-12-03T17:35:07.118Z,0.84
2022-12-03T17:37:34.109Z,0.83
2022-12-03T17:40:03.729Z,0.85
2022-12-03T17:42:30.393Z,0.84
2022-12-03T17:44:57.167Z,0.83
2022-12-03T17:47:23.859Z,0.81
2022-12-03T17:49:50.380Z,0.81
2022-12-03T17:52:17.002Z,0.83
2022-12-03T17:55:09.005Z,0.87
2022-12-03T17:57:30.429Z,0.85
2022-12-03T17:59:57.404Z,0.85
2022-12-03T18:02:24.046Z,0.84
2022-12-03T18:04:50.624Z,0.84
2022-12-03T18:07:17.339Z,0.88
2022-12-03T18:09:43.954Z,0.89
2022-12-03T18:12:10.644Z,0.85
2022-12-03T18:14:37.282Z,0.79
2022-12-03T18:17:03.928Z,0.82
2022-12-03T18:19:30.539Z,0.83
2022-12-03T18:21:57.254Z,0.87
2022-12-03T18:24:24.458Z,0.84
2022-12-03T18:26:51.154Z,0.82
2022-12-03T18:29:18.011Z,0.80
2022-12-03T18:31:44.880Z,0.81
2022-12-03T18:34:11.590Z,0.79
2022-12-03T18:36:38.488Z,0.78
2022-12-03T18:39:09.054Z,0.78
2022-12-03T18:41:36.572Z,0.76
2022-12-03T18:44:09.196Z,0.76
2022-12-03T18:46:52.884Z,0.78
2022-12-03T18:49:20.463Z,0.80
2022-12-03T18:51:48.316Z,0.82
2022-12-03T18:54:15.465Z,0.78
2022-12-03T18:56:42.097Z,0.76
2022-12-03T18:59:09.421Z,0.75
2022-12-03T19:01:36.122Z,0.76
2022-12-03T19:04:02.890Z,0.73
2022-12-03T19:06:30.527Z,0.75
2022-12-03T19:08:57.785Z,0.72
2022-12-03T19:11:24.954Z,0.74
2022-12-03T19:13:52.115Z,0.73
2022-12-03T19:16:20.090Z,0.74
2022-12-03T19:18:46.701Z,0.73
2022-12-03T19:21:15.322Z,0.73
2022-12-03T19:23:58.904Z,0.75
2022-12-03T19:26:29.546Z,0.72
2022-12-03T19:28:56.220Z,0.71
2022-12-03T19:31:24.085Z,0.71
2022-12-03T19:33:51.927Z,0.73
2022-12-03T19:36:24.312Z,0.69
2022-12-03T19:38:56.920Z,0.71
2022-12-03T19:41:27.284Z,0.72
2022-12-03T19:43:55.677Z,0.74
2022-12-03T19:46:24.924Z,0.72
2022-12-03T19:48:51.797Z,0.69
2022-12-03T19:51:35.420Z,0.71
2022-12-03T19:54:07.216Z,0.74
2022-12-03T19:56:34.697Z,0.75
2022-12-03T19:59:01.363Z,0.76
2022-12-03T20:01:31.159Z,0.77
2022-12-03T20:04:00.049Z,0.74
2022-12-03T20:06:30.737Z,0.75
2022-12-03T20:08:59.602Z,0.70
2022-12-03T20:11:29.243Z,0.70
2022-12-03T20:13:59.251Z,0.69
2022-12-03T20:16:26.795Z,0.68
2022-12-03T20:18:57.864Z,0.70
2022-12-03T20:21:24.821Z,0.70
2022-12-03T20:23:51.397Z,0.71
2022-12-03T20:26:20.373Z,0.74
2022-12-03T20:28:48.139Z,0.74
2022-12-03T20:31:20.782Z,0.74
2022-12-03T20:33:50.100Z,0.74
2022-12-03T20:36:20.849Z,0.71
2022-12-03T20:38:47.604Z,0.74
2022-12-03T20:41:21.100Z,0.76
2022-12-03T20:43:48.048Z,0.80
2022-12-03T20:46:16.101Z,0.77
2022-12-03T20:48:43.859Z,0.77
2022-12-03T20:51:13.757Z,0.75
2022-12-03T20:53:40.915Z,0.76
2022-12-03T20:56:09.766Z,0.73
2022-12-03T20:58:37.159Z,0.76
2022-12-03T21:01:18.829Z,0.74
2022-12-03T21:03:46.625Z,0.74
2022-12-03T21:06:16.020Z,0.74
2022-12-03T21:08:43.744Z,0.75
2022-12-03T21:11:13.270Z,0.77
2022-12-03T21:13:41.836Z,0.79
2022-12-03T21:16:11.059Z,0.75
2022-12-03T21:18:38.313Z,0.74
2022-12-03T21:21:05.938Z,0.77
2022-12-03T21:23:33.594Z,0.79
2022-12-03T21:26:12.552Z,0.79
2022-12-03T21:28:40.577Z,0.78
2022-12-03T21:31:09.944Z,0.75
2022-12-03T21:33:37.118Z,0.75
2022-12-03T21:36:06.114Z,0.74
2022-12-03T21:38:33.832Z,0.73
2022-12-03T21:41:02.002Z,0.75
2022-12-03T21:43:29.501Z,0.72
2022-12-03T21:45:58.533Z,0.75
2022-12-03T21:48:25.202Z,0.74
2022-12-03T21:51:00.439Z,0.74
2022-12-03T21:53:28.106Z,0.76
2022-12-03T21:55:54.925Z,0.78
2022-12-03T21:58:21.584Z,0.80
2022-12-03T22:00:48.211Z,0.81
2022-12-03T22:03:14.941Z,0.81
2022-12-03T22:05:41.605Z,0.83
2022-12-03T22:08:09.272Z,0.82
2022-12-03T22:10:36.389Z,0.82
2022-12-03T22:13:03.096Z,0.83
2022-12-03T22:15:29.871Z,0.85
2022-12-03T22:17:56.564Z,0.82
2022-12-03T22:20:23.433Z,0.81
2022-12-03T22:22:51.023Z,0.82
2022-12-03T22:25:17.671Z,0.78
2022-12-03T22:27:44.367Z,0.78
2022-12-03T22:30:12.530Z,0.82
2022-12-03T22:32:39.141Z,0.79
2022-12-03T22:35:06.039Z,0.79
2022-12-03T22:37:33.024Z,0.79
2022-12-03T22:39:59.590Z,0.79
2022-12-03T22:42:26.197Z,0.75
2022-12-03T22:44:53.280Z,0.75
2022-12-03T22:47:19.864Z,0.74
2022-12-03T22:49:46.508Z,0.77
2022-12-03T22:52:13.305Z,0.79
2022-12-03T22:54:39.925Z,0.78
2022-12-03T22:57:06.665Z,0.77
2022-12-03T22:59:33.456Z,0.81
2022-12-03T23:02:00.086Z,0.82
2022-12-03T23:04:26.856Z,0.82
2022-12-03T23:06:53.769Z,0.79
2022-12-03T23:09:21.048Z,0.78
2022-12-03T23:11:47.747Z,0.78
2022-12-03T23:14:14.937Z,0.77
2022-12-03T23:16:41.621Z,0.76
2022-12-03T23:19:09.229Z,0.77
2022-12-03T23:21:36.125Z,0.77
2022-12-03T23:24:04.531Z,0.79
2022-12-03T23:26:35.253Z,0.83
2022-12-03T23:29:01.882Z,0.80
2022-12-03T23:31:30.990Z,0.79
2022-12-03T23:33:58.801Z,0.77
2022-12-03T23:36:28.048Z,0.76
2022-12-03T23:38:55.022Z,0.78
2022-12-03T23:41:23.275Z,0.81
2022-12-03T23:43:50.308Z,0.81
2022-12-03T23:46:23.242Z,0.81
2022-12-03T23:48:51.122Z,0.85
2022-12-03T23:51:21.869Z,0.87
2022-12-03T23:53:48.541Z,0.85
2022-12-03T23:56:17.838Z,0.83
2022-12-03T23:58:45.315Z,0.82
